sensor_id;sensor_type;location;lat;lon;timestamp;pressure;altitude;pressure_sealevel;temperature;humidity
36598;BME280;22607;49.550;11.940;2022-12-20T00:02:01;97606.03;;;-0.80;100.00
36598;BME280;22607;49.550;11.940;2022-12-20T00:04:27;97596.38;;;-0.76;100.00
36598;BME280;22607;49.550;11.940;2022-12-20T00:06:54;97600.22;;;-0.67;100.00
36598;BME280;22607;49.550;11.940;2022-12-20T00:09:20;97596.97;;;-0.71;100.00
36598;BME280;22607;49.550;11.940;2022-12-20T00:11:47;97592.16;;;-0.61;100.00
36598;BME280;22607;49.550;11.940;2022-12-20T00:14:13;97584.75;;;-0.67;100.00
36598;BME280;22607;49.550;11.940;2022-12-20T00:16:39;97586.91;;;-0.75;100.00
36598;BME280;22607;49.550;11.940;2022-12-20T00:19:06;97587.72;;;-0.59;100.00
36598;BME280;22607;49.550;11.940;2022-12-20T00:21:33;97590.91;;;-0.54;100.00
36598;BME280;22607;49.550;11.940;2022-12-20T00:24:00;97595.72;;;-0.47;100.00
36598;BME280;22607;49.550;11.940;2022-12-20T00:26:27;97596.88;;;-0.53;100.00
36598;BME280;22607;49.550;11.940;2022-12-20T00:28:54;97591.22;;;-0.60;100.00
36598;BME280;22607;49.550;11.940;2022-12-20T00:31:21;97591.41;;;-0.63;100.00
36598;BME280;22607;49.550;11.940;2022-12-20T00:33:57;97599.31;;;-0.66;100.00
36598;BME280;22607;49.550;11.940;2022-12-20T00:36:25;97595.06;;;-0.67;100.00
36598;BME280;22607;49.550;11.940;2022-12-20T00:38:53;97599.22;;;-0.64;100.00
36598;BME280;22607;49.550;11.940;2022-12-20T00:41:21;97589.91;;;-0.67;100.00
36598;BME280;22607;49.550;11.940;2022-12-20T00:46:28;97589.22;;;-0.55;100.00
36598;BME280;22607;49.550;11.940;2022-12-20T00:49:00;97589.00;;;-0.50;100.00
36598;BME280;22607;49.550;11.940;2022-12-20T00:51:27;97584.47;;;-0.46;100.00
36598;BME280;22607;49.550;11.940;2022-12-20T00:53:54;97586.41;;;-0.50;100.00
36598;BME280;22607;49.550;11.940;2022-12-20T00:56:31;97597.53;;;-0.66;100.00
36598;BME280;22607;49.550;11.940;2022-12-20T00:58:58;97587.41;;;-0.52;100.00
36598;BME280;22607;49.550;11.940;2022-12-20T01:01:28;97594.06;;;-0.48;100.00
36598;BME280;22607;49.550;11.940;2022-12-20T01:06:42;97583.16;;;-0.54;100.00
36598;BME280;22607;49.550;11.940;2022-12-20T01:09:09;97583.84;;;-0.50;100.00
36598;BME280;22607;49.550;11.940;2022-12-20T01:11:37;97587.81;;;-0.44;100.00
36598;BME280;22607;49.550;11.940;2022-12-20T01:14:20;97580.31;;;-0.49;100.00
36598;BME280;22607;49.550;11.940;2022-12-20T01:16:47;97588.16;;;-0.50;100.00
36598;BME280;22607;49.550;11.940;2022-12-20T01:19:15;97602.72;;;-0.49;100.00
36598;BME280;22607;49.550;11.940;2022-12-20T01:21:55;97605.91;;;-0.44;100.00
36598;BME280;22607;49.550;11.940;2022-12-20T01:24:21;97603.41;;;-0.46;100.00
36598;BME280;22607;49.550;11.940;2022-12-20T01:26:47;97600.53;;;-0.41;100.00
36598;BME280;22607;49.550;11.940;2022-12-20T01:29:14;97606.47;;;-0.39;100.00
36598;BME280;22607;49.550;11.940;2022-12-20T01:31:41;97602.31;;;-0.42;100.00
36598;BME280;22607;49.550;11.940;2022-12-20T01:34:08;97604.38;;;-0.32;100.00
36598;BME280;22607;49.550;11.940;2022-12-20T01:36:35;97593.38;;;-0.36;100.00
36598;BME280;22607;49.550;11.940;2022-12-20T01:39:04;97590.88;;;-0.37;100.00
36598;BME280;22607;49.550;11.940;2022-12-20T01:41:31;97594.38;;;-0.38;100.00
36598;BME280;22607;49.550;11.940;2022-12-20T01:46:47;97577.94;;;-0.21;100.00
36598;BME280;22607;49.550;11.940;2022-12-20T01:52:06;97566.91;;;-0.40;100.00
36598;BME280;22607;49.550;11.940;2022-12-20T01:54:56;97568.25;;;-0.32;100.00
36598;BME280;22607;49.550;11.940;2022-12-20T01:57:26;97563.91;;;-0.32;100.00
36598;BME280;22607;49.550;11.940;2022-12-20T01:59:54;97563.75;;;-0.29;100.00
36598;BME280;22607;49.550;11.940;2022-12-20T02:02:28;97561.88;;;-0.27;100.00
36598;BME280;22607;49.550;11.940;2022-12-20T02:04:55;97563.91;;;-0.32;100.00
36598;BME280;22607;49.550;11.940;2022-12-20T02:07:32;97556.16;;;-0.32;100.00
36598;BME280;22607;49.550;11.940;2022-12-20T02:09:59;97556.16;;;-0.32;100.00
36598;BME280;22607;49.550;11.940;2022-12-20T02:12:32;97550.06;;;-0.31;100.00
36598;BME280;22607;49.550;11.940;2022-12-20T02:20:12;97513.59;;;-0.24;100.00
36598;BME280;22607;49.550;11.940;2022-12-20T02:25:46;97535.94;;;-0.40;100.00
36598;BME280;22607;49.550;11.940;2022-12-20T02:31:22;97526.06;;;-0.47;100.00
36598;BME280;22607;49.550;11.940;2022-12-20T02:33:51;97510.66;;;-0.49;100.00
36598;BME280;22607;49.550;11.940;2022-12-20T02:36:20;97525.97;;;-0.46;100.00
36598;BME280;22607;49.550;11.940;2022-12-20T02:41:20;97534.44;;;-0.44;100.00
36598;BME280;22607;49.550;11.940;2022-12-20T02:43:52;97534.72;;;-0.48;100.00
36598;BME280;22607;49.550;11.940;2022-12-20T02:46:38;97523.53;;;-0.33;100.00
36598;BME280;22607;49.550;11.940;2022-12-20T02:49:09;97535.44;;;-0.46;100.00
36598;BME280;22607;49.550;11.940;2022-12-20T02:51:37;97535.44;;;-0.46;100.00
36598;BME280;22607;49.550;11.940;2022-12-20T02:54:05;97526.47;;;-0.39;100.00
36598;BME280;22607;49.550;11.940;2022-12-20T02:56:32;97528.94;;;-0.37;100.00
36598;BME280;22607;49.550;11.940;2022-12-20T03:01:30;97526.19;;;-0.34;100.00
36598;BME280;22607;49.550;11.940;2022-12-20T03:03:58;97522.69;;;-0.33;100.00
36598;BME280;22607;49.550;11.940;2022-12-20T03:09:50;97502.91;;;-0.18;100.00
36598;BME280;22607;49.550;11.940;2022-12-20T03:12:17;97499.97;;;-0.12;100.00
36598;BME280;22607;49.550;11.940;2022-12-20T03:14:43;97488.19;;;-0.16;100.00
36598;BME280;22607;49.550;11.940;2022-12-20T03:17:10;97479.13;;;-0.09;100.00
36598;BME280;22607;49.550;11.940;2022-12-20T03:22:09;97472.03;;;-0.05;100.00
36598;BME280;22607;49.550;11.940;2022-12-20T03:24:35;97481.63;;;-0.07;100.00
36598;BME280;22607;49.550;11.940;2022-12-20T03:27:02;97485.88;;;-0.06;100.00
36598;BME280;22607;49.550;11.940;2022-12-20T03:32:05;97481.34;;;-0.03;100.00
36598;BME280;22607;49.550;11.940;2022-12-20T03:34:32;97476.09;;;-0.01;100.00
36598;BME280;22607;49.550;11.940;2022-12-20T03:36:58;97484.03;;;-0.04;100.00
36598;BME280;22607;49.550;11.940;2022-12-20T03:39:24;97464.09;;;-0.17;100.00
36598;BME280;22607;49.550;11.940;2022-12-20T03:41:51;97491.19;;;-0.09;100.00
36598;BME280;22607;49.550;11.940;2022-12-20T03:44:17;97499.78;;;-0.09;100.00
36598;BME280;22607;49.550;11.940;2022-12-20T03:46:44;97492.03;;;-0.09;100.00
36598;BME280;22607;49.550;11.940;2022-12-20T03:49:11;97490.03;;;-0.04;100.00
36598;BME280;22607;49.550;11.940;2022-12-20T03:51:37;97498.06;;;-0.08;100.00
36598;BME280;22607;49.550;11.940;2022-12-20T03:54:11;97489.63;;;-0.12;100.00
36598;BME280;22607;49.550;11.940;2022-12-20T03:56:37;97484.44;;;-0.27;100.00
36598;BME280;22607;49.550;11.940;2022-12-20T03:59:04;97479.13;;;-0.09;100.00
36598;BME280;22607;49.550;11.940;2022-12-20T04:04:23;97469.63;;;-0.23;100.00
36598;BME280;22607;49.550;11.940;2022-12-20T04:06:49;97475.88;;;-0.27;100.00
36598;BME280;22607;49.550;11.940;2022-12-20T04:09:15;97489.03;;;-0.32;100.00
36598;BME280;22607;49.550;11.940;2022-12-20T04:11:42;97477.91;;;-0.32;100.00
36598;BME280;22607;49.550;11.940;2022-12-20T04:14:08;97474.03;;;-0.25;100.00
36598;BME280;22607;49.550;11.940;2022-12-20T04:19:12;97493.34;;;-0.16;100.00
36598;BME280;22607;49.550;11.940;2022-12-20T04:21:50;97493.94;;;-0.27;100.00
36598;BME280;22607;49.550;11.940;2022-12-20T04:24:16;97486.06;;;-0.40;100.00
36598;BME280;22607;49.550;11.940;2022-12-20T04:26:42;97481.00;;;-0.42;100.00
36598;BME280;22607;49.550;11.940;2022-12-20T04:29:09;97474.06;;;-0.41;100.00
36598;BME280;22607;49.550;11.940;2022-12-20T04:31:36;97472.13;;;-0.37;100.00
36598;BME280;22607;49.550;11.940;2022-12-20T04:34:03;97474.00;;;-0.40;100.00
36598;BME280;22607;49.550;11.940;2022-12-20T04:36:31;97471.03;;;-0.33;100.00
36598;BME280;22607;49.550;11.940;2022-12-20T04:38:57;97481.56;;;-0.36;100.00
36598;BME280;22607;49.550;11.940;2022-12-20T04:41:24;97476.50;;;-0.38;100.00
36598;BME280;22607;49.550;11.940;2022-12-20T04:43:55;97482.94;;;-0.31;100.00
36598;BME280;22607;49.550;11.940;2022-12-20T04:46:23;97488.78;;;-0.27;100.00
36598;BME280;22607;49.550;11.940;2022-12-20T04:48:52;97488.69;;;-0.25;100.00
36598;BME280;22607;49.550;11.940;2022-12-20T04:51:25;97487.41;;;-0.18;100.00
36598;BME280;22607;49.550;11.940;2022-12-20T04:57:28;97486.41;;;-0.16;100.00
36598;BME280;22607;49.550;11.940;2022-12-20T05:00:02;97485.31;;;-0.11;100.00
36598;BME280;22607;49.550;11.940;2022-12-20T05:02:29;97473.72;;;-0.04;100.00
36598;BME280;22607;49.550;11.940;2022-12-20T05:04:56;97460.81;;;-0.04;100.00
36598;BME280;22607;49.550;11.940;2022-12-20T05:07:22;97459.22;;;-0.07;100.00
36598;BME280;22607;49.550;11.940;2022-12-20T05:09:48;97452.84;;;-0.01;100.00
36598;BME280;22607;49.550;11.940;2022-12-20T05:15:11;97448.31;;;-0.12;100.00
36598;BME280;22607;49.550;11.940;2022-12-20T05:17:44;97457.28;;;-0.18;100.00
36598;BME280;22607;49.550;11.940;2022-12-20T05:20:11;97451.44;;;-0.21;100.00
36598;BME280;22607;49.550;11.940;2022-12-20T05:22:38;97443.06;;;-0.10;100.00
36598;BME280;22607;49.550;11.940;2022-12-20T05:25:23;97447.22;;;-0.08;100.00
36598;BME280;22607;49.550;11.940;2022-12-20T05:28:08;97436.94;;;-0.24;100.00
36598;BME280;22607;49.550;11.940;2022-12-20T05:30:35;97446.41;;;-0.08;100.00
36598;BME280;22607;49.550;11.940;2022-12-20T05:33:01;97443.53;;;-0.04;100.00
36598;BME280;22607;49.550;11.940;2022-12-20T05:35:27;97445.19;;;-0.03;100.00
36598;BME280;22607;49.550;11.940;2022-12-20T05:37:54;97453.13;;;-0.06;100.00
36598;BME280;22607;49.550;11.940;2022-12-20T05:40:22;97447.41;;;-0.11;100.00
36598;BME280;22607;49.550;11.940;2022-12-20T05:42:48;97450.66;;;-0.07;100.00
36598;BME280;22607;49.550;11.940;2022-12-20T05:48:03;97445.38;;;-0.20;100.00
36598;BME280;22607;49.550;11.940;2022-12-20T05:50:32;97440.78;;;-0.15;100.00
36598;BME280;22607;49.550;11.940;2022-12-20T05:52:58;97431.25;;;-0.15;100.00
36598;BME280;22607;49.550;11.940;2022-12-20T05:55:28;97423.63;;;-0.16;100.00
36598;BME280;22607;49.550;11.940;2022-12-20T05:57:55;97423.41;;;-0.13;100.00
36598;BME280;22607;49.550;11.940;2022-12-20T06:00:22;97427.84;;;-0.15;100.00
36598;BME280;22607;49.550;11.940;2022-12-20T06:02:48;97432.75;;;-0.10;100.00
36598;BME280;22607;49.550;11.940;2022-12-20T06:05:15;97421.75;;;-0.14;100.00
36598;BME280;22607;49.550;11.940;2022-12-20T06:07:42;97417.69;;;-0.18;100.00
36598;BME280;22607;49.550;11.940;2022-12-20T06:10:09;97423.09;;;-0.07;100.00
36598;BME280;22607;49.550;11.940;2022-12-20T06:12:36;97432.09;;;-0.14;100.00
36598;BME280;22607;49.550;11.940;2022-12-20T06:15:03;97439.13;;;-0.16;100.00
36598;BME280;22607;49.550;11.940;2022-12-20T06:17:29;97432.75;;;-0.10;100.00
36598;BME280;22607;49.550;11.940;2022-12-20T06:20:13;97412.75;;;-0.07;100.00
36598;BME280;22607;49.550;11.940;2022-12-20T06:22:39;97410.53;;;0.02;100.00
36598;BME280;22607;49.550;11.940;2022-12-20T06:25:06;97410.16;;;-0.07;100.00
36598;BME280;22607;49.550;11.940;2022-12-20T06:27:35;97397.06;;;-0.04;100.00
36598;BME280;22607;49.550;11.940;2022-12-20T06:30:03;97400.38;;;-0.02;100.00
36598;BME280;22607;49.550;11.940;2022-12-20T06:32:29;97399.25;;;-0.12;100.00
36598;BME280;22607;49.550;11.940;2022-12-20T06:34:56;97408.13;;;-0.16;100.00
36598;BME280;22607;49.550;11.940;2022-12-20T06:37:22;97403.59;;;-0.12;100.00
36598;BME280;22607;49.550;11.940;2022-12-20T06:39:49;97422.94;;;-0.20;100.00
36598;BME280;22607;49.550;11.940;2022-12-20T06:42:15;97432.66;;;-0.09;100.00
36598;BME280;22607;49.550;11.940;2022-12-20T06:44:42;97429.16;;;0.07;100.00
36598;BME280;22607;49.550;11.940;2022-12-20T06:50:16;97435.59;;;-0.15;100.00
36598;BME280;22607;49.550;11.940;2022-12-20T06:52:48;97430.00;;;0.07;100.00
36598;BME280;22607;49.550;11.940;2022-12-20T06:55:15;97428.34;;;0.06;100.00
36598;BME280;22607;49.550;11.940;2022-12-20T06:57:41;97432.66;;;0.20;100.00
36598;BME280;22607;49.550;11.940;2022-12-20T07:00:08;97420.59;;;0.21;100.00
36598;BME280;22607;49.550;11.940;2022-12-20T07:02:35;97414.59;;;0.49;100.00
36598;BME280;22607;49.550;11.940;2022-12-20T07:07:47;97425.38;;;0.27;100.00
36598;BME280;22607;49.550;11.940;2022-12-20T07:10:14;97424.28;;;0.31;100.00
36598;BME280;22607;49.550;11.940;2022-12-20T07:12:40;97433.22;;;0.25;100.00
36598;BME280;22607;49.550;11.940;2022-12-20T07:15:13;97430.28;;;0.17;100.00
36598;BME280;22607;49.550;11.940;2022-12-20T07:17:39;97429.19;;;0.21;100.00
36598;BME280;22607;49.550;11.940;2022-12-20T07:22:39;97429.44;;;0.46;100.00
36598;BME280;22607;49.550;11.940;2022-12-20T07:25:06;97431.22;;;0.31;100.00
36598;BME280;22607;49.550;11.940;2022-12-20T07:27:40;97425.94;;;0.47;100.00
36598;BME280;22607;49.550;11.940;2022-12-20T07:30:06;97419.47;;;0.39;100.00
36598;BME280;22607;49.550;11.940;2022-12-20T07:32:33;97451.69;;;0.34;100.00
36598;BME280;22607;49.550;11.940;2022-12-20T07:34:59;97438.72;;;0.77;100.00
36598;BME280;22607;49.550;11.940;2022-12-20T07:39:57;97433.19;;;0.69;100.00
36598;BME280;22607;49.550;11.940;2022-12-20T07:42:37;97435.88;;;0.68;100.00
36598;BME280;22607;49.550;11.940;2022-12-20T07:45:13;97413.63;;;0.65;100.00
36598;BME280;22607;49.550;11.940;2022-12-20T07:47:40;97415.53;;;0.76;100.00
36598;BME280;22607;49.550;11.940;2022-12-20T07:50:07;97410.22;;;0.50;100.00
36598;BME280;22607;49.550;11.940;2022-12-20T07:52:33;97395.94;;;0.86;100.00
36598;BME280;22607;49.550;11.940;2022-12-20T07:55:01;97397.94;;;0.68;100.00
36598;BME280;22607;49.550;11.940;2022-12-20T07:57:30;97407.25;;;0.71;100.00
36598;BME280;22607;49.550;11.940;2022-12-20T07:59:58;97410.09;;;0.66;100.00
36598;BME280;22607;49.550;11.940;2022-12-20T08:02:28;97423.56;;;0.71;100.00
36598;BME280;22607;49.550;11.940;2022-12-20T08:05:04;97413.22;;;0.71;100.00
36598;BME280;22607;49.550;11.940;2022-12-20T08:07:32;97410.78;;;0.97;100.00
36598;BME280;22607;49.550;11.940;2022-12-20T08:10:17;97400.78;;;1.06;100.00
36598;BME280;22607;49.550;11.940;2022-12-20T08:12:44;97396.94;;;1.11;100.00
36598;BME280;22607;49.550;11.940;2022-12-20T08:17:44;97393.13;;;1.17;100.00
36598;BME280;22607;49.550;11.940;2022-12-20T08:20:11;97392.34;;;1.29;99.14
36598;BME280;22607;49.550;11.940;2022-12-20T08:22:37;97397.69;;;1.13;100.00
36598;BME280;22607;49.550;11.940;2022-12-20T08:25:04;97405.72;;;1.09;100.00
36598;BME280;22607;49.550;11.940;2022-12-20T08:27:31;97407.88;;;1.02;100.00
36598;BME280;22607;49.550;11.940;2022-12-20T08:29:57;97417.72;;;1.10;100.00
36598;BME280;22607;49.550;11.940;2022-12-20T08:32:23;97405.47;;;1.26;100.00
36598;BME280;22607;49.550;11.940;2022-12-20T08:34:50;97388.56;;;1.48;98.38
36598;BME280;22607;49.550;11.940;2022-12-20T08:37:17;97381.50;;;1.37;99.25
36598;BME280;22607;49.550;11.940;2022-12-20T08:39:44;97383.47;;;1.60;96.33
36598;BME280;22607;49.550;11.940;2022-12-20T08:42:10;97397.84;;;1.38;97.50
36598;BME280;22607;49.550;11.940;2022-12-20T08:44:37;97393.66;;;1.63;94.67
36598;BME280;22607;49.550;11.940;2022-12-20T08:47:03;97389.44;;;1.34;99.39
36598;BME280;22607;49.550;11.940;2022-12-20T08:49:29;97378.47;;;1.30;99.69
36598;BME280;22607;49.550;11.940;2022-12-20T08:51:56;97369.78;;;1.44;97.85
36598;BME280;22607;49.550;11.940;2022-12-20T08:54:22;97367.72;;;1.37;98.90
36598;BME280;22607;49.550;11.940;2022-12-20T08:57:00;97370.81;;;1.29;100.00
36598;BME280;22607;49.550;11.940;2022-12-20T08:59:26;97364.00;;;1.41;99.40
36598;BME280;22607;49.550;11.940;2022-12-20T09:01:53;97361.91;;;1.46;100.00
36598;BME280;22607;49.550;11.940;2022-12-20T09:04:20;97360.41;;;1.56;99.33
36598;BME280;22607;49.550;11.940;2022-12-20T09:07:04;97351.69;;;1.57;100.00
36598;BME280;22607;49.550;11.940;2022-12-20T09:09:30;97353.88;;;1.64;98.69
36598;BME280;22607;49.550;11.940;2022-12-20T09:12:12;97351.59;;;1.72;100.00
36598;BME280;22607;49.550;11.940;2022-12-20T09:14:47;97358.13;;;1.91;97.68
36598;BME280;22607;49.550;11.940;2022-12-20T09:17:13;97358.63;;;1.96;98.49
36598;BME280;22607;49.550;11.940;2022-12-20T09:19:40;97352.72;;;1.81;98.59
36598;BME280;22607;49.550;11.940;2022-12-20T09:22:06;97370.44;;;2.00;99.11
36598;BME280;22607;49.550;11.940;2022-12-20T09:24:33;97384.81;;;2.17;100.00
36598;BME280;22607;49.550;11.940;2022-12-20T09:27:00;97367.63;;;2.16;99.21
36598;BME280;22607;49.550;11.940;2022-12-20T09:29:26;97370.78;;;2.33;96.02
36598;BME280;22607;49.550;11.940;2022-12-20T09:38:17;97382.00;;;2.33;93.53
36598;BME280;22607;49.550;11.940;2022-12-20T09:40:44;97381.91;;;2.35;90.48
36598;BME280;22607;49.550;11.940;2022-12-20T09:43:12;97387.44;;;2.04;95.53
36598;BME280;22607;49.550;11.940;2022-12-20T09:45:39;97391.13;;;2.26;93.60
36598;BME280;22607;49.550;11.940;2022-12-20T09:48:09;97366.47;;;2.20;93.52
36598;BME280;22607;49.550;11.940;2022-12-20T09:50:44;97362.81;;;2.36;92.56
36598;BME280;22607;49.550;11.940;2022-12-20T09:55:53;97347.19;;;2.25;92.04
36598;BME280;22607;49.550;11.940;2022-12-20T10:01:15;97331.19;;;2.31;92.59
36598;BME280;22607;49.550;11.940;2022-12-20T10:03:49;97336.59;;;2.41;91.93
36598;BME280;22607;49.550;11.940;2022-12-20T10:06:31;97338.94;;;2.44;91.82
36598;BME280;22607;49.550;11.940;2022-12-20T10:09:02;97341.31;;;2.47;92.30
36598;BME280;22607;49.550;11.940;2022-12-20T10:14:37;97324.38;;;2.54;91.63
36598;BME280;22607;49.550;11.940;2022-12-20T10:17:09;97321.72;;;2.43;92.45
36598;BME280;22607;49.550;11.940;2022-12-20T10:30:32;97328.09;;;2.26;95.89
36598;BME280;22607;49.550;11.940;2022-12-20T10:32:58;97310.22;;;2.47;95.09
36598;BME280;22607;49.550;11.940;2022-12-20T10:35:37;97307.63;;;2.47;92.06
36598;BME280;22607;49.550;11.940;2022-12-20T10:38:15;97302.47;;;2.34;93.20
36598;BME280;22607;49.550;11.940;2022-12-20T10:40:57;97301.19;;;2.40;92.86
36598;BME280;22607;49.550;11.940;2022-12-20T10:43:45;97286.00;;;2.59;91.88
36598;BME280;22607;49.550;11.940;2022-12-20T10:46:13;97284.09;;;2.61;92.88
36598;BME280;22607;49.550;11.940;2022-12-20T10:48:47;97283.66;;;2.68;91.47
36598;BME280;22607;49.550;11.940;2022-12-20T10:51:15;97278.59;;;2.66;91.21
36598;BME280;22607;49.550;11.940;2022-12-20T10:54:01;97280.25;;;2.43;94.94
36598;BME280;22607;49.550;11.940;2022-12-20T11:01:46;97271.03;;;2.87;92.41
36598;BME280;22607;49.550;11.940;2022-12-20T11:04:27;97263.56;;;2.83;91.21
36598;BME280;22607;49.550;11.940;2022-12-20T11:06:54;97256.56;;;2.72;92.45
36598;BME280;22607;49.550;11.940;2022-12-20T11:14:40;97240.38;;;2.93;88.75
36598;BME280;22607;49.550;11.940;2022-12-20T11:24:56;97202.56;;;3.47;83.99
36598;BME280;22607;49.550;11.940;2022-12-20T11:40:59;97186.88;;;3.49;85.83
36598;BME280;22607;49.550;11.940;2022-12-20T11:49:35;97189.56;;;3.47;91.48
36598;BME280;22607;49.550;11.940;2022-12-20T11:52:10;97181.19;;;3.32;88.72
36598;BME280;22607;49.550;11.940;2022-12-20T11:54:46;97183.06;;;3.19;89.02
36598;BME280;22607;49.550;11.940;2022-12-20T11:57:20;97179.19;;;3.24;89.33
36598;BME280;22607;49.550;11.940;2022-12-20T12:00:10;97177.06;;;3.30;89.59
36598;BME280;22607;49.550;11.940;2022-12-20T12:08:02;97178.34;;;3.12;89.39
36598;BME280;22607;49.550;11.940;2022-12-20T12:10:34;97173.28;;;3.34;87.54
36598;BME280;22607;49.550;11.940;2022-12-20T12:13:05;97165.13;;;3.27;85.76
36598;BME280;22607;49.550;11.940;2022-12-20T12:15:39;97166.53;;;3.42;83.66
36598;BME280;22607;49.550;11.940;2022-12-20T12:18:15;97167.25;;;3.10;87.79
36598;BME280;22607;49.550;11.940;2022-12-20T12:20:58;97174.19;;;2.98;88.97
36598;BME280;22607;49.550;11.940;2022-12-20T12:23:36;97178.31;;;3.01;88.84
36598;BME280;22607;49.550;11.940;2022-12-20T12:26:09;97174.06;;;2.88;89.88
36598;BME280;22607;49.550;11.940;2022-12-20T12:28:40;97169.22;;;2.84;90.28
36598;BME280;22607;49.550;11.940;2022-12-20T12:31:07;97166.34;;;2.64;91.24
36598;BME280;22607;49.550;11.940;2022-12-20T12:33:44;97160.84;;;2.80;90.33
36598;BME280;22607;49.550;11.940;2022-12-20T12:36:21;97165.44;;;2.77;92.11
36598;BME280;22607;49.550;11.940;2022-12-20T12:47:15;97145.41;;;3.01;89.87
36598;BME280;22607;49.550;11.940;2022-12-20T12:49:46;97148.59;;;2.94;89.35
36598;BME280;22607;49.550;11.940;2022-12-20T12:52:28;97147.28;;;2.88;90.41
36598;BME280;22607;49.550;11.940;2022-12-20T12:55:00;97140.59;;;2.97;91.53
36598;BME280;22607;49.550;11.940;2022-12-20T12:57:27;97132.22;;;3.05;90.24
36598;BME280;22607;49.550;11.940;2022-12-20T12:59:53;97130.56;;;3.26;88.79
36598;BME280;22607;49.550;11.940;2022-12-20T13:02:24;97127.03;;;3.27;87.88
36598;BME280;22607;49.550;11.940;2022-12-20T13:09:50;97130.56;;;3.26;87.79
36598;BME280;22607;49.550;11.940;2022-12-20T13:15:48;97120.28;;;3.36;88.07
36598;BME280;22607;49.550;11.940;2022-12-20T13:17:49;97114.94;;;3.49;87.34
36598;BME280;22607;49.550;11.940;2022-12-20T13:23:44;97123.13;;;3.45;91.06
36598;BME280;22607;49.550;11.940;2022-12-20T13:35:26;97090.25;;;3.66;86.25
36598;BME280;22607;49.550;11.940;2022-12-20T13:38:00;97096.84;;;3.71;86.55
36598;BME280;22607;49.550;11.940;2022-12-20T13:42:56;97086.31;;;3.84;86.16
36598;BME280;22607;49.550;11.940;2022-12-20T13:45:24;97086.56;;;3.80;87.11
36598;BME280;22607;49.550;11.940;2022-12-20T13:48:00;97090.09;;;3.79;87.31
36598;BME280;22607;49.550;11.940;2022-12-20T13:57:00;97090.97;;;3.68;91.71
36598;BME280;22607;49.550;11.940;2022-12-20T14:05:20;97078.13;;;3.56;93.03
36598;BME280;22607;49.550;11.940;2022-12-20T14:10:52;97070.69;;;3.51;91.04
36598;BME280;22607;49.550;11.940;2022-12-20T14:13:25;97079.81;;;3.34;93.53
36598;BME280;22607;49.550;11.940;2022-12-20T14:16:28;97070.88;;;3.15;94.72
36598;BME280;22607;49.550;11.940;2022-12-20T14:25:48;97081.25;;;2.92;100.00
36598;BME280;22607;49.550;11.940;2022-12-20T14:31:01;97091.97;;;2.76;100.00
36598;BME280;22607;49.550;11.940;2022-12-20T14:40:25;97084.19;;;2.76;97.63
36598;BME280;22607;49.550;11.940;2022-12-20T14:46:19;97086.91;;;2.74;95.63
36598;BME280;22607;49.550;11.940;2022-12-20T14:48:47;97082.88;;;2.70;98.39
36598;BME280;22607;49.550;11.940;2022-12-20T14:54:43;97093.50;;;2.79;94.52
36598;BME280;22607;49.550;11.940;2022-12-20T15:00:11;97099.03;;;2.51;95.30
36598;BME280;22607;49.550;11.940;2022-12-20T15:06:06;97079.44;;;2.58;96.31
36598;BME280;22607;49.550;11.940;2022-12-20T15:08:52;97059.09;;;2.77;94.15
36598;BME280;22607;49.550;11.940;2022-12-20T15:11:20;97036.81;;;2.74;93.81
36598;BME280;22607;49.550;11.940;2022-12-20T15:17:16;97032.31;;;2.76;94.18
36598;BME280;22607;49.550;11.940;2022-12-20T15:26:39;97016.75;;;2.65;98.12
36598;BME280;22607;49.550;11.940;2022-12-20T15:29:05;97018.38;;;2.54;99.39
36598;BME280;22607;49.550;11.940;2022-12-20T15:38:23;97047.84;;;2.42;100.00
36598;BME280;22607;49.550;11.940;2022-12-20T15:44:16;97042.41;;;2.45;100.00
36598;BME280;22607;49.550;11.940;2022-12-20T15:50:06;97020.41;;;2.51;100.00
36598;BME280;22607;49.550;11.940;2022-12-20T15:52:32;97034.91;;;2.53;100.00
36598;BME280;22607;49.550;11.940;2022-12-20T15:54:59;97025.94;;;2.57;100.00
36598;BME280;22607;49.550;11.940;2022-12-20T15:57:25;97038.19;;;2.44;100.00
36598;BME280;22607;49.550;11.940;2022-12-20T15:59:54;97031.56;;;2.40;100.00
36598;BME280;22607;49.550;11.940;2022-12-20T16:02:28;97033.56;;;2.25;100.00
36598;BME280;22607;49.550;11.940;2022-12-20T16:08:23;97025.69;;;2.38;100.00
36598;BME280;22607;49.550;11.940;2022-12-20T16:17:21;97028.03;;;2.29;100.00
36598;BME280;22607;49.550;11.940;2022-12-20T16:19:48;97037.81;;;2.26;100.00
36598;BME280;22607;49.550;11.940;2022-12-20T16:25:36;97046.06;;;2.42;100.00
36598;BME280;22607;49.550;11.940;2022-12-20T16:31:40;97030.66;;;2.41;100.00
36598;BME280;22607;49.550;11.940;2022-12-20T16:34:16;97039.59;;;2.36;100.00
36598;BME280;22607;49.550;11.940;2022-12-20T16:40:05;97036.53;;;2.31;100.00
36598;BME280;22607;49.550;11.940;2022-12-20T16:42:39;97034.06;;;2.30;100.00
36598;BME280;22607;49.550;11.940;2022-12-20T16:45:09;97040.16;;;2.29;100.00
36598;BME280;22607;49.550;11.940;2022-12-20T16:47:38;97053.25;;;2.27;100.00
36598;BME280;22607;49.550;11.940;2022-12-20T16:50:05;97053.00;;;2.19;100.00
36598;BME280;22607;49.550;11.940;2022-12-20T16:52:33;97045.44;;;2.16;100.00
36598;BME280;22607;49.550;11.940;2022-12-20T16:55:02;97035.56;;;2.21;100.00
36598;BME280;22607;49.550;11.940;2022-12-20T16:57:29;97034.25;;;2.15;100.00
36598;BME280;22607;49.550;11.940;2022-12-20T16:59:55;97034.75;;;2.20;100.00
36598;BME280;22607;49.550;11.940;2022-12-20T17:02:24;97011.31;;;2.22;100.00
36598;BME280;22607;49.550;11.940;2022-12-20T17:04:52;97024.97;;;2.24;100.00
36598;BME280;22607;49.550;11.940;2022-12-20T17:10:40;97025.66;;;2.15;100.00
36598;BME280;22607;49.550;11.940;2022-12-20T17:13:08;97024.22;;;2.10;100.00
36598;BME280;22607;49.550;11.940;2022-12-20T17:19:03;97021.44;;;2.25;100.00
36598;BME280;22607;49.550;11.940;2022-12-20T17:22:03;97025.28;;;2.08;100.00